sensor_id;sensor_type;location;lat;lon;timestamp;temperature;humidity
68215;DHT22;55036;52.138;5.236;2023-08-17T00:01:34;19.40;72.90
68215;DHT22;55036;52.138;5.236;2023-08-17T00:04:01;19.40;73.10
68215;DHT22;55036;52.138;5.236;2023-08-17T00:06:28;19.40;72.90
68215;DHT22;55036;52.138;5.236;2023-08-17T00:08:55;19.40;73.10
68215;DHT22;55036;52.138;5.236;2023-08-17T00:11:22;19.40;73.00
68215;DHT22;55036;52.138;5.236;2023-08-17T00:13:49;19.30;73.30
68215;DHT22;55036;52.138;5.236;2023-08-17T00:16:16;19.20;73.00
68215;DHT22;55036;52.138;5.236;2023-08-17T00:18:43;19.20;73.40
68215;DHT22;55036;52.138;5.236;2023-08-17T00:21:10;19.20;73.90
68215;DHT22;55036;52.138;5.236;2023-08-17T00:23:37;19.10;73.80
68215;DHT22;55036;52.138;5.236;2023-08-17T00:26:03;19.10;73.70
68215;DHT22;55036;52.138;5.236;2023-08-17T00:28:30;19.20;73.90
68215;DHT22;55036;52.138;5.236;2023-08-17T00:30:57;19.20;73.50
68215;DHT22;55036;52.138;5.236;2023-08-17T00:33:24;19.20;74.30
68215;DHT22;55036;52.138;5.236;2023-08-17T00:35:50;19.00;74.50
68215;DHT22;55036;52.138;5.236;2023-08-17T00:38:17;19.00;74.40
68215;DHT22;55036;52.138;5.236;2023-08-17T00:40:44;19.10;74.20
68215;DHT22;55036;52.138;5.236;2023-08-17T01:22:17;18.90;75.90
68215;DHT22;55036;52.138;5.236;2023-08-17T01:24:45;18.80;75.00
68215;DHT22;55036;52.138;5.236;2023-08-17T01:27:12;18.70;74.80
68215;DHT22;55036;52.138;5.236;2023-08-17T01:29:39;18.70;75.70
68215;DHT22;55036;52.138;5.236;2023-08-17T01:32:22;18.60;75.50
68215;DHT22;55036;52.138;5.236;2023-08-17T01:34:57;18.60;75.50
68215;DHT22;55036;52.138;5.236;2023-08-17T01:37:28;18.60;76.00
68215;DHT22;55036;52.138;5.236;2023-08-17T01:39:56;18.40;75.90
68215;DHT22;55036;52.138;5.236;2023-08-17T01:42:24;18.50;75.90
68215;DHT22;55036;52.138;5.236;2023-08-17T01:44:52;18.50;76.10
68215;DHT22;55036;52.138;5.236;2023-08-17T01:47:22;18.40;76.50
68215;DHT22;55036;52.138;5.236;2023-08-17T01:49:50;18.40;76.20
68215;DHT22;55036;52.138;5.236;2023-08-17T01:52:16;18.40;76.30
68215;DHT22;55036;52.138;5.236;2023-08-17T01:54:43;18.40;76.30
68215;DHT22;55036;52.138;5.236;2023-08-17T01:57:10;18.40;76.50
68215;DHT22;55036;52.138;5.236;2023-08-17T01:59:37;18.50;76.30
68215;DHT22;55036;52.138;5.236;2023-08-17T02:02:04;18.60;76.10
68215;DHT22;55036;52.138;5.236;2023-08-17T02:04:30;18.50;77.40
68215;DHT22;55036;52.138;5.236;2023-08-17T02:06:57;18.50;76.10
68215;DHT22;55036;52.138;5.236;2023-08-17T02:09:24;18.50;76.30
68215;DHT22;55036;52.138;5.236;2023-08-17T02:11:52;18.50;76.40
68215;DHT22;55036;52.138;5.236;2023-08-17T02:14:18;18.50;76.50
68215;DHT22;55036;52.138;5.236;2023-08-17T02:16:45;18.40;76.30
68215;DHT22;55036;52.138;5.236;2023-08-17T02:19:12;18.40;76.30
68215;DHT22;55036;52.138;5.236;2023-08-17T02:21:39;18.40;76.40
68215;DHT22;55036;52.138;5.236;2023-08-17T02:24:06;18.40;76.80
68215;DHT22;55036;52.138;5.236;2023-08-17T02:26:33;18.30;76.80
68215;DHT22;55036;52.138;5.236;2023-08-17T02:28:59;18.30;76.90
68215;DHT22;55036;52.138;5.236;2023-08-17T02:31:26;18.30;77.20
68215;DHT22;55036;52.138;5.236;2023-08-17T02:33:53;18.40;77.10
68215;DHT22;55036;52.138;5.236;2023-08-17T02:36:20;18.40;76.90
68215;DHT22;55036;52.138;5.236;2023-08-17T02:38:46;18.40;77.20
68215;DHT22;55036;52.138;5.236;2023-08-17T02:41:13;18.40;77.10
68215;DHT22;55036;52.138;5.236;2023-08-17T02:43:40;18.40;77.10
68215;DHT22;55036;52.138;5.236;2023-08-17T02:46:07;18.40;76.90
68215;DHT22;55036;52.138;5.236;2023-08-17T02:48:34;18.40;76.70
68215;DHT22;55036;52.138;5.236;2023-08-17T02:51:00;18.40;76.90
68215;DHT22;55036;52.138;5.236;2023-08-17T02:53:27;18.30;77.00
68215;DHT22;55036;52.138;5.236;2023-08-17T02:55:54;18.30;77.60
68215;DHT22;55036;52.138;5.236;2023-08-17T02:58:21;18.40;77.50
68215;DHT22;55036;52.138;5.236;2023-08-17T03:00:47;18.40;77.50
68215;DHT22;55036;52.138;5.236;2023-08-17T03:03:17;18.30;77.60
68215;DHT22;55036;52.138;5.236;2023-08-17T03:05:44;18.40;77.70
68215;DHT22;55036;52.138;5.236;2023-08-17T03:08:10;18.40;77.60
68215;DHT22;55036;52.138;5.236;2023-08-17T03:10:37;18.50;77.50
68215;DHT22;55036;52.138;5.236;2023-08-17T03:13:04;18.50;77.30
68215;DHT22;55036;52.138;5.236;2023-08-17T03:15:31;18.50;77.30
68215;DHT22;55036;52.138;5.236;2023-08-17T03:17:58;18.50;77.20
68215;DHT22;55036;52.138;5.236;2023-08-17T03:20:24;18.40;77.50
68215;DHT22;55036;52.138;5.236;2023-08-17T03:22:51;18.40;77.80
68215;DHT22;55036;52.138;5.236;2023-08-17T03:25:18;18.30;78.10
68215;DHT22;55036;52.138;5.236;2023-08-17T03:27:45;18.40;77.70
68215;DHT22;55036;52.138;5.236;2023-08-17T03:30:12;18.30;77.60
68215;DHT22;55036;52.138;5.236;2023-08-17T03:32:39;18.30;77.70
68215;DHT22;55036;52.138;5.236;2023-08-17T03:35:08;18.40;78.40
68215;DHT22;55036;52.138;5.236;2023-08-17T03:37:34;18.40;77.40
68215;DHT22;55036;52.138;5.236;2023-08-17T03:40:01;18.40;77.60
68215;DHT22;55036;52.138;5.236;2023-08-17T03:42:28;18.40;77.50
68215;DHT22;55036;52.138;5.236;2023-08-17T03:44:55;18.40;77.70
68215;DHT22;55036;52.138;5.236;2023-08-17T03:47:22;18.30;77.50
68215;DHT22;55036;52.138;5.236;2023-08-17T03:49:49;18.40;77.70
68215;DHT22;55036;52.138;5.236;2023-08-17T03:52:15;18.30;77.80
68215;DHT22;55036;52.138;5.236;2023-08-17T03:54:42;18.30;77.70
68215;DHT22;55036;52.138;5.236;2023-08-17T03:57:09;18.40;77.60
68215;DHT22;55036;52.138;5.236;2023-08-17T03:59:36;18.40;77.50
68215;DHT22;55036;52.138;5.236;2023-08-17T04:02:02;18.40;77.30
68215;DHT22;55036;52.138;5.236;2023-08-17T04:04:29;18.40;77.50
68215;DHT22;55036;52.138;5.236;2023-08-17T04:06:56;18.30;77.40
68215;DHT22;55036;52.138;5.236;2023-08-17T04:09:23;18.20;77.70
68215;DHT22;55036;52.138;5.236;2023-08-17T04:11:49;18.20;77.80
68215;DHT22;55036;52.138;5.236;2023-08-17T04:14:16;18.20;77.70
68215;DHT22;55036;52.138;5.236;2023-08-17T04:16:45;18.20;77.90
68215;DHT22;55036;52.138;5.236;2023-08-17T04:19:12;18.20;77.80
68215;DHT22;55036;52.138;5.236;2023-08-17T04:21:39;18.20;78.10
68215;DHT22;55036;52.138;5.236;2023-08-17T04:24:06;18.20;77.90
68215;DHT22;55036;52.138;5.236;2023-08-17T04:26:33;18.20;78.10
68215;DHT22;55036;52.138;5.236;2023-08-17T04:29:00;18.20;77.80
68215;DHT22;55036;52.138;5.236;2023-08-17T04:31:26;18.20;77.80
68215;DHT22;55036;52.138;5.236;2023-08-17T04:33:53;18.20;77.90
68215;DHT22;55036;52.138;5.236;2023-08-17T04:36:20;18.20;78.10
68215;DHT22;55036;52.138;5.236;2023-08-17T04:38:47;18.20;78.10
68215;DHT22;55036;52.138;5.236;2023-08-17T04:41:13;18.20;78.10
68215;DHT22;55036;52.138;5.236;2023-08-17T04:43:40;18.10;78.50
68215;DHT22;55036;52.138;5.236;2023-08-17T04:46:07;18.10;78.50
68215;DHT22;55036;52.138;5.236;2023-08-17T04:48:34;18.10;78.40
68215;DHT22;55036;52.138;5.236;2023-08-17T04:51:01;18.10;78.50
68215;DHT22;55036;52.138;5.236;2023-08-17T04:53:27;18.10;78.60
68215;DHT22;55036;52.138;5.236;2023-08-17T04:55:54;18.20;78.10
68215;DHT22;55036;52.138;5.236;2023-08-17T04:58:21;18.10;78.70
68215;DHT22;55036;52.138;5.236;2023-08-17T05:00:48;18.10;78.60
68215;DHT22;55036;52.138;5.236;2023-08-17T05:03:15;18.00;78.80
68215;DHT22;55036;52.138;5.236;2023-08-17T05:05:58;18.00;78.60
68215;DHT22;55036;52.138;5.236;2023-08-17T05:08:25;18.00;79.10
68215;DHT22;55036;52.138;5.236;2023-08-17T05:10:52;18.00;78.90
68215;DHT22;55036;52.138;5.236;2023-08-17T05:13:19;18.00;79.20
68215;DHT22;55036;52.138;5.236;2023-08-17T05:15:46;18.10;79.00
68215;DHT22;55036;52.138;5.236;2023-08-17T05:18:12;18.10;79.10
68215;DHT22;55036;52.138;5.236;2023-08-17T05:20:39;18.10;78.90
68215;DHT22;55036;52.138;5.236;2023-08-17T05:23:06;18.20;80.20
68215;DHT22;55036;52.138;5.236;2023-08-17T05:25:33;18.30;79.20
68215;DHT22;55036;52.138;5.236;2023-08-17T05:28:00;18.40;78.90
68215;DHT22;55036;52.138;5.236;2023-08-17T05:30:27;18.40;78.60
68215;DHT22;55036;52.138;5.236;2023-08-17T05:32:53;18.50;78.00
68215;DHT22;55036;52.138;5.236;2023-08-17T05:35:20;18.50;77.90
68215;DHT22;55036;52.138;5.236;2023-08-17T05:37:47;18.40;78.20
68215;DHT22;55036;52.138;5.236;2023-08-17T05:40:14;18.50;78.30
68215;DHT22;55036;52.138;5.236;2023-08-17T05:42:41;18.60;77.70
68215;DHT22;55036;52.138;5.236;2023-08-17T05:45:08;18.70;78.30
68215;DHT22;55036;52.138;5.236;2023-08-17T05:47:35;18.80;77.70
68215;DHT22;55036;52.138;5.236;2023-08-17T05:50:02;18.80;77.70
68215;DHT22;55036;52.138;5.236;2023-08-17T05:52:29;18.90;77.00
68215;DHT22;55036;52.138;5.236;2023-08-17T05:54:55;18.90;77.10
68215;DHT22;55036;52.138;5.236;2023-08-17T05:57:22;18.90;76.80
68215;DHT22;55036;52.138;5.236;2023-08-17T05:59:50;18.80;76.70
68215;DHT22;55036;52.138;5.236;2023-08-17T06:02:16;18.70;76.60
68215;DHT22;55036;52.138;5.236;2023-08-17T06:04:43;18.60;77.30
68215;DHT22;55036;52.138;5.236;2023-08-17T06:07:10;18.50;77.50
68215;DHT22;55036;52.138;5.236;2023-08-17T06:09:37;18.70;77.40
68215;DHT22;55036;52.138;5.236;2023-08-17T06:12:04;18.70;77.60
68215;DHT22;55036;52.138;5.236;2023-08-17T06:14:32;18.80;77.50
68215;DHT22;55036;52.138;5.236;2023-08-17T06:16:59;18.80;77.50
68215;DHT22;55036;52.138;5.236;2023-08-17T06:19:26;19.00;77.70
68215;DHT22;55036;52.138;5.236;2023-08-17T06:21:53;19.10;77.10
68215;DHT22;55036;52.138;5.236;2023-08-17T06:24:20;19.20;75.70
68215;DHT22;55036;52.138;5.236;2023-08-17T06:26:46;19.10;75.30
68215;DHT22;55036;52.138;5.236;2023-08-17T06:29:13;19.00;76.20
68215;DHT22;55036;52.138;5.236;2023-08-17T06:31:40;19.00;76.70
68215;DHT22;55036;52.138;5.236;2023-08-17T06:34:06;19.10;76.40
68215;DHT22;55036;52.138;5.236;2023-08-17T06:36:33;19.10;76.50
68215;DHT22;55036;52.138;5.236;2023-08-17T06:39:00;19.00;76.50
68215;DHT22;55036;52.138;5.236;2023-08-17T06:41:27;19.10;76.10
68215;DHT22;55036;52.138;5.236;2023-08-17T06:43:53;19.10;76.10
68215;DHT22;55036;52.138;5.236;2023-08-17T06:46:20;19.20;76.00
68215;DHT22;55036;52.138;5.236;2023-08-17T06:48:47;19.20;76.20
68215;DHT22;55036;52.138;5.236;2023-08-17T06:51:14;19.30;75.70
68215;DHT22;55036;52.138;5.236;2023-08-17T06:53:41;19.30;75.70
68215;DHT22;55036;52.138;5.236;2023-08-17T06:56:09;19.40;76.10
68215;DHT22;55036;52.138;5.236;2023-08-17T06:58:36;19.60;76.40
68215;DHT22;55036;52.138;5.236;2023-08-17T07:01:02;19.80;74.90
68215;DHT22;55036;52.138;5.236;2023-08-17T07:03:29;19.80;73.90
68215;DHT22;55036;52.138;5.236;2023-08-17T07:05:56;19.80;73.50
68215;DHT22;55036;52.138;5.236;2023-08-17T07:08:23;19.70;74.60
68215;DHT22;55036;52.138;5.236;2023-08-17T07:10:50;19.80;74.20
68215;DHT22;55036;52.138;5.236;2023-08-17T07:13:17;19.80;74.00
68215;DHT22;55036;52.138;5.236;2023-08-17T07:15:43;19.80;74.40
68215;DHT22;55036;52.138;5.236;2023-08-17T07:18:10;19.80;73.90
68215;DHT22;55036;52.138;5.236;2023-08-17T07:20:37;19.70;74.50
68215;DHT22;55036;52.138;5.236;2023-08-17T07:23:04;19.70;74.60
68215;DHT22;55036;52.138;5.236;2023-08-17T07:25:31;19.80;74.70
68215;DHT22;55036;52.138;5.236;2023-08-17T07:27:59;19.70;74.10
68215;DHT22;55036;52.138;5.236;2023-08-17T07:30:25;19.70;74.20
68215;DHT22;55036;52.138;5.236;2023-08-17T07:32:52;19.70;74.80
68215;DHT22;55036;52.138;5.236;2023-08-17T07:35:19;19.70;74.80
68215;DHT22;55036;52.138;5.236;2023-08-17T07:37:46;19.70;73.90
68215;DHT22;55036;52.138;5.236;2023-08-17T07:40:29;19.70;74.80
68215;DHT22;55036;52.138;5.236;2023-08-17T07:42:56;19.80;75.00
68215;DHT22;55036;52.138;5.236;2023-08-17T07:45:22;19.80;73.80
68215;DHT22;55036;52.138;5.236;2023-08-17T07:47:49;19.70;74.60
68215;DHT22;55036;52.138;5.236;2023-08-17T07:50:17;19.80;74.20
68215;DHT22;55036;52.138;5.236;2023-08-17T07:52:44;19.80;74.20
68215;DHT22;55036;52.138;5.236;2023-08-17T07:55:10;19.70;74.60
68215;DHT22;55036;52.138;5.236;2023-08-17T07:57:38;19.80;74.40
68215;DHT22;55036;52.138;5.236;2023-08-17T08:00:05;19.90;74.50
68215;DHT22;55036;52.138;5.236;2023-08-17T08:02:32;20.10;74.90
68215;DHT22;55036;52.138;5.236;2023-08-17T08:04:59;20.20;72.70
68215;DHT22;55036;52.138;5.236;2023-08-17T08:07:25;20.10;73.00
68215;DHT22;55036;52.138;5.236;2023-08-17T08:09:52;20.00;73.90
68215;DHT22;55036;52.138;5.236;2023-08-17T08:12:19;20.00;75.40
68215;DHT22;55036;52.138;5.236;2023-08-17T08:14:46;20.30;75.00
68215;DHT22;55036;52.138;5.236;2023-08-17T08:17:13;20.50;73.90
68215;DHT22;55036;52.138;5.236;2023-08-17T08:19:40;20.40;72.60
68215;DHT22;55036;52.138;5.236;2023-08-17T08:22:06;20.30;73.00
68215;DHT22;55036;52.138;5.236;2023-08-17T08:24:33;20.40;74.30
68215;DHT22;55036;52.138;5.236;2023-08-17T08:27:05;20.80;74.40
68215;DHT22;55036;52.138;5.236;2023-08-17T08:29:33;21.10;72.10
68215;DHT22;55036;52.138;5.236;2023-08-17T08:32:00;21.30;70.10
68215;DHT22;55036;52.138;5.236;2023-08-17T08:34:29;20.80;70.90
68215;DHT22;55036;52.138;5.236;2023-08-17T08:36:55;20.80;72.40
68215;DHT22;55036;52.138;5.236;2023-08-17T08:39:25;21.10;71.20
68215;DHT22;55036;52.138;5.236;2023-08-17T08:41:52;21.20;70.70
68215;DHT22;55036;52.138;5.236;2023-08-17T08:44:19;21.20;70.90
68215;DHT22;55036;52.138;5.236;2023-08-17T08:46:47;21.50;69.60
68215;DHT22;55036;52.138;5.236;2023-08-17T08:49:20;21.50;70.80
68215;DHT22;55036;52.138;5.236;2023-08-17T08:51:50;21.60;70.50
68215;DHT22;55036;52.138;5.236;2023-08-17T08:54:21;21.80;70.00
68215;DHT22;55036;52.138;5.236;2023-08-17T08:57:03;21.90;68.30
68215;DHT22;55036;52.138;5.236;2023-08-17T08:59:30;22.00;68.40
68215;DHT22;55036;52.138;5.236;2023-08-17T09:01:58;22.00;68.50
68215;DHT22;55036;52.138;5.236;2023-08-17T09:04:25;21.80;67.30
68215;DHT22;55036;52.138;5.236;2023-08-17T09:06:53;21.40;68.60
68215;DHT22;55036;52.138;5.236;2023-08-17T09:09:20;21.30;68.60
68215;DHT22;55036;52.138;5.236;2023-08-17T09:11:48;21.20;69.00
68215;DHT22;55036;52.138;5.236;2023-08-17T09:14:14;21.20;70.10
68215;DHT22;55036;52.138;5.236;2023-08-17T09:16:41;21.10;70.10
68215;DHT22;55036;52.138;5.236;2023-08-17T09:19:08;21.20;69.80
68215;DHT22;55036;52.138;5.236;2023-08-17T09:21:35;21.30;69.00
68215;DHT22;55036;52.138;5.236;2023-08-17T09:24:02;21.10;69.90
68215;DHT22;55036;52.138;5.236;2023-08-17T09:26:31;21.20;69.80
68215;DHT22;55036;52.138;5.236;2023-08-17T09:28:59;21.10;69.80
68215;DHT22;55036;52.138;5.236;2023-08-17T09:31:26;21.00;70.70
68215;DHT22;55036;52.138;5.236;2023-08-17T09:33:57;21.00;71.10
68215;DHT22;55036;52.138;5.236;2023-08-17T09:36:25;21.00;70.90
68215;DHT22;55036;52.138;5.236;2023-08-17T09:38:52;21.00;70.90
68215;DHT22;55036;52.138;5.236;2023-08-17T09:41:19;21.20;71.10
68215;DHT22;55036;52.138;5.236;2023-08-17T09:43:46;21.30;70.10
68215;DHT22;55036;52.138;5.236;2023-08-17T09:46:14;21.50;70.00
68215;DHT22;55036;52.138;5.236;2023-08-17T09:48:43;21.50;69.90
68215;DHT22;55036;52.138;5.236;2023-08-17T09:51:15;21.70;69.70
68215;DHT22;55036;52.138;5.236;2023-08-17T09:53:42;21.90;69.20
68215;DHT22;55036;52.138;5.236;2023-08-17T09:56:09;21.90;68.80
68215;DHT22;55036;52.138;5.236;2023-08-17T09:58:43;21.90;67.50
68215;DHT22;55036;52.138;5.236;2023-08-17T10:01:10;21.80;68.30
68215;DHT22;55036;52.138;5.236;2023-08-17T10:03:43;21.50;69.00
68215;DHT22;55036;52.138;5.236;2023-08-17T10:06:13;21.70;68.90
68215;DHT22;55036;52.138;5.236;2023-08-17T10:08:44;21.80;68.40
68215;DHT22;55036;52.138;5.236;2023-08-17T10:11:12;21.90;68.70
68215;DHT22;55036;52.138;5.236;2023-08-17T10:14:15;21.90;69.90
68215;DHT22;55036;52.138;5.236;2023-08-17T10:16:45;22.10;69.20
68215;DHT22;55036;52.138;5.236;2023-08-17T10:19:41;22.10;68.50
68215;DHT22;55036;52.138;5.236;2023-08-17T10:22:16;22.20;68.30
68215;DHT22;55036;52.138;5.236;2023-08-17T10:24:45;21.90;67.60
68215;DHT22;55036;52.138;5.236;2023-08-17T10:27:13;21.70;69.00
68215;DHT22;55036;52.138;5.236;2023-08-17T10:29:40;21.50;69.00
68215;DHT22;55036;52.138;5.236;2023-08-17T10:32:08;21.30;69.90
68215;DHT22;55036;52.138;5.236;2023-08-17T10:34:35;21.30;69.90
68215;DHT22;55036;52.138;5.236;2023-08-17T10:37:03;21.30;70.20
68215;DHT22;55036;52.138;5.236;2023-08-17T10:39:30;21.40;70.10
68215;DHT22;55036;52.138;5.236;2023-08-17T10:41:58;21.50;70.00
68215;DHT22;55036;52.138;5.236;2023-08-17T10:44:45;21.60;69.90
68215;DHT22;55036;52.138;5.236;2023-08-17T10:47:26;21.40;69.90
68215;DHT22;55036;52.138;5.236;2023-08-17T10:50:00;21.60;69.80
68215;DHT22;55036;52.138;5.236;2023-08-17T10:52:31;21.50;69.80
68215;DHT22;55036;52.138;5.236;2023-08-17T10:55:00;21.50;69.80
68215;DHT22;55036;52.138;5.236;2023-08-17T10:57:38;21.50;70.40
68215;DHT22;55036;52.138;5.236;2023-08-17T11:03:06;21.70;69.40
68215;DHT22;55036;52.138;5.236;2023-08-17T11:05:50;21.60;69.70
68215;DHT22;55036;52.138;5.236;2023-08-17T11:08:40;21.60;69.40
68215;DHT22;55036;52.138;5.236;2023-08-17T11:11:20;21.40;69.90
68215;DHT22;55036;52.138;5.236;2023-08-17T11:13:47;21.50;70.60
68215;DHT22;55036;52.138;5.236;2023-08-17T11:16:16;21.60;70.20
68215;DHT22;55036;52.138;5.236;2023-08-17T11:18:47;21.70;69.50
68215;DHT22;55036;52.138;5.236;2023-08-17T11:21:18;21.50;70.00
68215;DHT22;55036;52.138;5.236;2023-08-17T11:23:46;21.60;69.70
68215;DHT22;55036;52.138;5.236;2023-08-17T11:26:17;21.50;69.60
68215;DHT22;55036;52.138;5.236;2023-08-17T11:28:44;21.50;70.10
68215;DHT22;55036;52.138;5.236;2023-08-17T11:31:13;21.50;70.60
68215;DHT22;55036;52.138;5.236;2023-08-17T11:33:42;21.50;70.30
68215;DHT22;55036;52.138;5.236;2023-08-17T11:36:09;21.60;70.00
68215;DHT22;55036;52.138;5.236;2023-08-17T11:38:38;21.60;70.40
68215;DHT22;55036;52.138;5.236;2023-08-17T11:41:05;21.60;71.10
68215;DHT22;55036;52.138;5.236;2023-08-17T11:43:36;21.60;70.30
68215;DHT22;55036;52.138;5.236;2023-08-17T11:46:04;21.80;69.90
68215;DHT22;55036;52.138;5.236;2023-08-17T11:48:32;21.80;69.00
68215;DHT22;55036;52.138;5.236;2023-08-17T11:51:01;21.60;69.90
68215;DHT22;55036;52.138;5.236;2023-08-17T11:53:36;21.60;69.70
68215;DHT22;55036;52.138;5.236;2023-08-17T11:56:03;21.50;70.30
68215;DHT22;55036;52.138;5.236;2023-08-17T12:01:11;21.50;70.40
68215;DHT22;55036;52.138;5.236;2023-08-17T12:03:39;21.50;70.80
68215;DHT22;55036;52.138;5.236;2023-08-17T12:06:09;21.50;72.00
68215;DHT22;55036;52.138;5.236;2023-08-17T12:08:36;21.50;71.10
68215;DHT22;55036;52.138;5.236;2023-08-17T12:11:03;21.50;70.80
68215;DHT22;55036;52.138;5.236;2023-08-17T12:13:33;21.40;71.30
68215;DHT22;55036;52.138;5.236;2023-08-17T12:16:01;21.50;70.60
68215;DHT22;55036;52.138;5.236;2023-08-17T12:18:30;21.50;71.20
68215;DHT22;55036;52.138;5.236;2023-08-17T12:20:58;21.50;71.20
68215;DHT22;55036;52.138;5.236;2023-08-17T12:23:25;21.70;71.80
68215;DHT22;55036;52.138;5.236;2023-08-17T12:25:53;21.80;71.20
68215;DHT22;55036;52.138;5.236;2023-08-17T12:28:21;22.00;71.10
68215;DHT22;55036;52.138;5.236;2023-08-17T12:31:00;22.00;72.00
68215;DHT22;55036;52.138;5.236;2023-08-17T12:33:28;22.10;70.80
68215;DHT22;55036;52.138;5.236;2023-08-17T12:35:55;22.00;70.20
68215;DHT22;55036;52.138;5.236;2023-08-17T12:38:24;21.90;69.40
68215;DHT22;55036;52.138;5.236;2023-08-17T12:40:51;21.70;70.90
68215;DHT22;55036;52.138;5.236;2023-08-17T12:43:18;21.70;71.10
68215;DHT22;55036;52.138;5.236;2023-08-17T12:45:44;21.70;71.20
68215;DHT22;55036;52.138;5.236;2023-08-17T12:48:11;21.70;71.40
68215;DHT22;55036;52.138;5.236;2023-08-17T12:50:38;21.80;71.00
68215;DHT22;55036;52.138;5.236;2023-08-17T12:53:08;21.80;71.10
68215;DHT22;55036;52.138;5.236;2023-08-17T12:55:34;21.80;70.20
68215;DHT22;55036;52.138;5.236;2023-08-17T12:58:02;21.60;71.20
68215;DHT22;55036;52.138;5.236;2023-08-17T13:00:28;21.60;71.50
68215;DHT22;55036;52.138;5.236;2023-08-17T13:02:55;21.70;71.00
68215;DHT22;55036;52.138;5.236;2023-08-17T13:05:22;21.50;71.00
68215;DHT22;55036;52.138;5.236;2023-08-17T13:07:49;21.40;71.80
68215;DHT22;55036;52.138;5.236;2023-08-17T13:10:16;21.40;71.80
68215;DHT22;55036;52.138;5.236;2023-08-17T13:12:42;21.40;73.00
68215;DHT22;55036;52.138;5.236;2023-08-17T13:15:09;21.40;72.90
68215;DHT22;55036;52.138;5.236;2023-08-17T13:17:36;21.30;72.50
68215;DHT22;55036;52.138;5.236;2023-08-17T13:20:04;21.40;73.00
68215;DHT22;55036;52.138;5.236;2023-08-17T13:22:32;21.30;73.00
68215;DHT22;55036;52.138;5.236;2023-08-17T13:24:59;21.30;72.80
68215;DHT22;55036;52.138;5.236;2023-08-17T13:27:26;21.30;72.60
68215;DHT22;55036;52.138;5.236;2023-08-17T13:29:53;21.30;73.20
68215;DHT22;55036;52.138;5.236;2023-08-17T13:32:20;21.40;72.90
68215;DHT22;55036;52.138;5.236;2023-08-17T13:34:47;21.40;72.90
68215;DHT22;55036;52.138;5.236;2023-08-17T13:37:14;21.50;72.60
68215;DHT22;55036;52.138;5.236;2023-08-17T13:39:41;21.50;72.80
68215;DHT22;55036;52.138;5.236;2023-08-17T13:42:07;21.40;72.80
68215;DHT22;55036;52.138;5.236;2023-08-17T13:44:34;21.50;72.50
68215;DHT22;55036;52.138;5.236;2023-08-17T13:47:01;21.60;72.30
68215;DHT22;55036;52.138;5.236;2023-08-17T13:49:28;21.60;72.00
68215;DHT22;55036;52.138;5.236;2023-08-17T13:51:55;21.70;72.60
68215;DHT22;55036;52.138;5.236;2023-08-17T13:54:23;21.70;72.40
68215;DHT22;55036;52.138;5.236;2023-08-17T13:56:51;21.60;72.20
68215;DHT22;55036;52.138;5.236;2023-08-17T13:59:18;21.50;72.60
68215;DHT22;55036;52.138;5.236;2023-08-17T14:01:44;21.50;72.20
68215;DHT22;55036;52.138;5.236;2023-08-17T14:04:11;21.40;72.70
68215;DHT22;55036;52.138;5.236;2023-08-17T14:06:40;21.50;72.80
68215;DHT22;55036;52.138;5.236;2023-08-17T14:09:07;21.60;72.80
68215;DHT22;55036;52.138;5.236;2023-08-17T14:11:33;21.70;72.60
68215;DHT22;55036;52.138;5.236;2023-08-17T14:14:00;21.70;71.70
68215;DHT22;55036;52.138;5.236;2023-08-17T14:16:27;21.60;72.40
68215;DHT22;55036;52.138;5.236;2023-08-17T14:18:54;21.40;73.70
68215;DHT22;55036;52.138;5.236;2023-08-17T14:21:21;21.50;73.70
68215;DHT22;55036;52.138;5.236;2023-08-17T14:23:49;21.70;73.00
68215;DHT22;55036;52.138;5.236;2023-08-17T14:26:16;21.80;72.50
68215;DHT22;55036;52.138;5.236;2023-08-17T14:28:42;21.70;72.90
68215;DHT22;55036;52.138;5.236;2023-08-17T14:31:11;21.70;72.10
68215;DHT22;55036;52.138;5.236;2023-08-17T14:33:44;21.50;72.70
68215;DHT22;55036;52.138;5.236;2023-08-17T14:36:15;21.50;72.90
68215;DHT22;55036;52.138;5.236;2023-08-17T14:38:46;21.50;73.10
68215;DHT22;55036;52.138;5.236;2023-08-17T14:41:13;21.40;73.40
68215;DHT22;55036;52.138;5.236;2023-08-17T14:43:40;21.50;73.20
68215;DHT22;55036;52.138;5.236;2023-08-17T14:46:07;21.40;73.90
68215;DHT22;55036;52.138;5.236;2023-08-17T14:48:39;21.30;74.00
68215;DHT22;55036;52.138;5.236;2023-08-17T14:51:06;21.30;74.20
68215;DHT22;55036;52.138;5.236;2023-08-17T14:53:33;21.40;73.80
68215;DHT22;55036;52.138;5.236;2023-08-17T14:56:05;21.50;74.20
68215;DHT22;55036;52.138;5.236;2023-08-17T14:58:31;21.60;73.40
68215;DHT22;55036;52.138;5.236;2023-08-17T15:00:58;21.50;75.00
68215;DHT22;55036;52.138;5.236;2023-08-17T15:03:25;21.40;73.80
68215;DHT22;55036;52.138;5.236;2023-08-17T15:05:52;21.50;74.20
68215;DHT22;55036;52.138;5.236;2023-08-17T15:08:19;21.50;74.00
68215;DHT22;55036;52.138;5.236;2023-08-17T15:10:46;21.50;73.90
68215;DHT22;55036;52.138;5.236;2023-08-17T15:13:14;21.50;73.90
68215;DHT22;55036;52.138;5.236;2023-08-17T15:15:41;21.50;74.30
68215;DHT22;55036;52.138;5.236;2023-08-17T15:18:10;21.50;73.90
68215;DHT22;55036;52.138;5.236;2023-08-17T15:20:37;21.50;73.70
68215;DHT22;55036;52.138;5.236;2023-08-17T15:23:04;21.50;74.10
68215;DHT22;55036;52.138;5.236;2023-08-17T15:25:30;21.40;74.30
68215;DHT22;55036;52.138;5.236;2023-08-17T15:27:57;21.50;74.20
68215;DHT22;55036;52.138;5.236;2023-08-17T15:30:24;21.40;74.20
68215;DHT22;55036;52.138;5.236;2023-08-17T15:32:51;21.40;74.60
68215;DHT22;55036;52.138;5.236;2023-08-17T15:35:17;21.40;74.60
68215;DHT22;55036;52.138;5.236;2023-08-17T15:37:44;21.40;74.40
68215;DHT22;55036;52.138;5.236;2023-08-17T15:40:11;21.30;75.30
68215;DHT22;55036;52.138;5.236;2023-08-17T15:42:38;21.30;75.50
68215;DHT22;55036;52.138;5.236;2023-08-17T15:45:05;21.40;75.10
68215;DHT22;55036;52.138;5.236;2023-08-17T15:47:33;21.40;74.50
68215;DHT22;55036;52.138;5.236;2023-08-17T15:50:00;21.30;74.60
68215;DHT22;55036;52.138;5.236;2023-08-17T15:52:27;21.30;75.00
68215;DHT22;55036;52.138;5.236;2023-08-17T15:54:54;21.30;74.90
68215;DHT22;55036;52.138;5.236;2023-08-17T15:57:21;21.20;75.20
68215;DHT22;55036;52.138;5.236;2023-08-17T15:59:47;21.20;75.60
68215;DHT22;55036;52.138;5.236;2023-08-17T16:02:16;21.10;75.70
68215;DHT22;55036;52.138;5.236;2023-08-17T16:04:44;21.10;75.80
68215;DHT22;55036;52.138;5.236;2023-08-17T16:07:10;21.20;75.60
68215;DHT22;55036;52.138;5.236;2023-08-17T16:09:38;21.10;76.00
68215;DHT22;55036;52.138;5.236;2023-08-17T16:12:05;21.10;76.10
68215;DHT22;55036;52.138;5.236;2023-08-17T16:14:32;21.20;77.20
68215;DHT22;55036;52.138;5.236;2023-08-17T16:16:59;21.20;76.70
68215;DHT22;55036;52.138;5.236;2023-08-17T16:19:29;21.20;76.30